Time;durP1;ratioP1;P1;durP2;ratioP2;P2;SDS_P1;SDS_P2;PMS_P1;PMS_P2;Temp;Humidity;BMP_temperature;BMP_pressure;BME280_temperature;BME280_humidity;BME280_pressure;Samples;Min_cycle;Max_cycle;Signal;HPM_P1;HPM_P2
2021/12/08 00:03:35;;;;;;;3.38;0.55;;;3.40;99.90;;;;;;10328100;28;20468;-62
2021/12/08 00:08:37;;;;;;;5.75;0.50;;;3.40;99.90;;;;;;10346163;28;21072;-61
2021/12/08 00:13:39;;;;;;;4.55;1.80;;;3.50;99.90;;;;;;10345154;28;20132;-61
2021/12/08 00:18:48;;;;;;;1.23;0.47;;;3.50;99.90;;;;;;10344290;28;20042;-62
2021/12/08 00:23:49;;;;;;;2.53;0.52;;;3.50;99.90;;;;;;10343778;28;20054;-61
2021/12/08 00:28:51;;;;;;;1.73;0.30;;;3.60;99.90;;;;;;10343678;28;20096;-61
2021/12/08 00:33:53;;;;;;;1.65;0.40;;;3.60;99.90;;;;;;10343024;28;20169;-61
2021/12/08 00:38:54;;;;;;;1.63;0.40;;;3.70;99.90;;;;;;10344750;28;20077;-62
2021/12/08 00:43:56;;;;;;;3.60;0.47;;;3.70;99.90;;;;;;10345147;28;20559;-61
2021/12/08 00:48:58;;;;;;;0.55;0.40;;;3.70;99.90;;;;;;10345847;28;20050;-62
2021/12/08 00:54:00;;;;;;;3.72;0.40;;;3.70;99.90;;;;;;10346001;28;20393;-62
2021/12/08 00:59:03;;;;;;;2.95;0.47;;;3.70;99.90;;;;;;10345151;28;20439;-61
2021/12/08 01:04:06;;;;;;;1.85;0.30;;;3.70;99.90;;;;;;10346533;28;20108;-62
2021/12/08 01:09:09;;;;;;;2.90;0.35;;;3.60;99.90;;;;;;10315478;28;20160;-62
2021/12/08 01:14:11;;;;;;;2.72;0.40;;;3.60;99.90;;;;;;10343838;28;20137;-62
2021/12/08 01:19:13;;;;;;;4.90;0.85;;;3.60;99.90;;;;;;10351182;28;20050;-62
2021/12/08 01:24:15;;;;;;;2.67;0.32;;;3.50;99.90;;;;;;10352262;28;20131;-61
2021/12/08 01:29:16;;;;;;;3.45;0.40;;;3.50;99.90;;;;;;10353231;28;20042;-61
2021/12/08 01:34:18;;;;;;;0.82;0.30;;;3.40;99.90;;;;;;10350743;28;20132;-62
2021/12/08 01:39:20;;;;;;;1.23;0.40;;;3.30;99.90;;;;;;10336215;28;20076;-62
2021/12/08 01:49:42;;;;;;;0.75;0.30;;;3.10;99.90;;;;;;10351587;28;20481;-62
2021/12/08 01:54:43;;;;;;;0.93;0.30;;;3.10;99.90;;;;;;10353871;28;20105;-61
2021/12/08 01:59:45;;;;;;;1.00;0.20;;;3.00;99.90;;;;;;10349738;28;20132;-61
2021/12/08 02:04:47;;;;;;;2.42;0.17;;;2.90;99.90;;;;;;10352092;28;20096;-63
2021/12/08 02:09:49;;;;;;;1.85;0.30;;;2.80;99.90;;;;;;10348169;28;20128;-63
2021/12/08 02:14:50;;;;;;;0.90;0.17;;;2.80;99.90;;;;;;10350112;28;20107;-63
2021/12/08 02:19:53;;;;;;;0.63;0.20;;;2.70;99.90;;;;;;10349610;28;20100;-63
2021/12/08 02:24:54;;;;;;;2.75;0.30;;;2.60;99.90;;;;;;10349689;28;20131;-63
2021/12/08 02:30:04;;;;;;;2.60;0.22;;;2.60;99.90;;;;;;10350574;28;20103;-63
2021/12/08 02:51:07;;;;;;;4.53;0.30;;;2.50;99.90;;;;;;10350118;28;20484;-63
2021/12/08 02:56:09;;;;;;;0.50;0.20;;;2.50;99.90;;;;;;10349869;28;20119;-63
2021/12/08 03:01:12;;;;;;;1.08;0.35;;;2.40;99.90;;;;;;10346353;28;20065;-62
2021/12/08 03:06:14;;;;;;;2.80;0.40;;;2.50;99.90;;;;;;10350620;28;20049;-62
2021/12/08 03:11:16;;;;;;;0.70;0.30;;;2.50;99.90;;;;;;10347889;28;20045;-62
2021/12/08 03:16:18;;;;;;;0.73;0.30;;;2.50;99.90;;;;;;10346598;28;20060;-62
2021/12/08 03:21:27;;;;;;;4.10;0.40;;;2.50;99.90;;;;;;10348624;28;20050;-62
2021/12/08 03:26:32;;;;;;;0.93;0.20;;;2.40;99.90;;;;;;10348610;28;20147;-63
2021/12/08 03:31:41;;;;;;;4.07;0.47;;;2.50;99.90;;;;;;10349798;28;20107;-63
2021/12/08 03:36:43;;;;;;;1.70;0.40;;;2.50;99.90;;;;;;10347209;28;20052;-63
2021/12/08 03:41:46;;;;;;;1.98;0.60;;;2.50;99.90;;;;;;10349032;28;20053;-63
2021/12/08 03:46:48;;;;;;;2.25;0.50;;;2.50;99.90;;;;;;10342848;28;20128;-63
2021/12/08 03:51:49;;;;;;;5.22;0.40;;;2.50;99.90;;;;;;10344196;28;20046;-63
2021/12/08 03:56:51;;;;;;;1.10;0.40;;;2.60;99.90;;;;;;10348447;28;20108;-63
2021/12/08 04:01:53;;;;;;;2.08;0.50;;;2.60;99.90;;;;;;10344555;28;20062;-63
2021/12/08 04:06:57;;;;;;;1.45;0.43;;;2.60;99.90;;;;;;10347386;28;20622;-62
2021/12/08 04:12:00;;;;;;;1.05;0.60;;;2.60;99.90;;;;;;10348159;28;20836;-62
2021/12/08 04:17:07;;;;;;;1.50;0.40;;;2.60;99.90;;;;;;10347604;28;20065;-61
2021/12/08 04:22:20;;;;;;;2.65;0.50;;;2.60;99.90;;;;;;10347410;28;20077;-62
2021/12/08 04:27:27;;;;;;;0.82;0.40;;;2.60;99.90;;;;;;10345282;28;20484;-62
2021/12/08 04:32:32;;;;;;;2.78;0.40;;;2.60;99.90;;;;;;10346462;28;20045;-62
2021/12/08 04:37:37;;;;;;;5.35;0.50;;;2.60;99.90;;;;;;10346857;28;20119;-61
2021/12/08 04:48:18;;;;;;;2.33;0.75;;;2.70;99.90;;;;;;10345092;28;20092;-63
2021/12/08 05:04:11;;;;;;;3.45;0.63;;;2.80;99.90;;;;;;10339077;28;20143;-63
2021/12/08 05:09:20;;;;;;;1.67;0.60;;;2.80;99.90;;;;;;10342324;28;20069;-64
2021/12/08 05:14:28;;;;;;;1.65;0.60;;;2.80;99.90;;;;;;10343754;28;20512;-63
2021/12/08 05:19:32;;;;;;;1.63;0.68;;;2.70;99.90;;;;;;10344685;28;20101;-63
2021/12/08 05:24:38;;;;;;;2.40;0.50;;;2.80;99.90;;;;;;10343176;28;20127;-64
2021/12/08 05:29:54;;;;;;;2.25;0.63;;;2.80;99.90;;;;;;10345254;28;20078;-64
2021/12/08 05:34:56;;;;;;;1.63;0.57;;;2.80;99.90;;;;;;10345669;28;20100;-64
2021/12/08 05:39:58;;;;;;;3.40;0.70;;;2.80;99.90;;;;;;10321750;28;20104;-64
2021/12/08 05:45:02;;;;;;;2.80;0.63;;;2.90;99.90;;;;;;10343159;28;20164;-64
2021/12/08 05:50:05;;;;;;;2.53;0.60;;;2.80;99.90;;;;;;10342325;28;20054;-64
2021/12/08 05:55:08;;;;;;;3.58;0.85;;;2.90;99.90;;;;;;10327119;28;20541;-64
2021/12/08 06:00:19;;;;;;;0.88;0.50;;;2.90;99.90;;;;;;10337855;28;20046;-64
2021/12/08 06:05:22;;;;;;;5.70;1.05;;;2.90;99.90;;;;;;10348021;28;20065;-65
2021/12/08 06:10:32;;;;;;;1.98;0.60;;;3.00;99.90;;;;;;10344561;28;20086;-64
2021/12/08 06:15:35;;;;;;;3.25;0.75;;;3.00;99.90;;;;;;10346324;28;20131;-65
2021/12/08 06:20:37;;;;;;;2.95;0.75;;;3.00;99.90;;;;;;10349405;28;20049;-64
2021/12/08 06:25:39;;;;;;;4.22;0.70;;;3.00;99.90;;;;;;10347696;28;20062;-64
2021/12/08 06:30:47;;;;;;;3.55;1.00;;;3.00;99.90;;;;;;10345722;28;20057;-63
2021/12/08 06:35:55;;;;;;;2.80;0.60;;;3.10;99.90;;;;;;10347041;28;20176;-63
2021/12/08 06:41:12;;;;;;;3.38;1.35;;;3.10;99.90;;;;;;10350893;28;20444;-63
2021/12/08 06:46:14;;;;;;;3.50;1.27;;;3.10;99.90;;;;;;10348368;28;20115;-63
2021/12/08 06:51:21;;;;;;;2.65;0.63;;;3.10;99.90;;;;;;10348301;28;20173;-63
2021/12/08 06:56:54;;;;;;;1.20;0.52;;;3.10;99.90;;;;;;10346407;28;20045;-63
2021/12/08 07:02:08;;;;;;;1.40;0.68;;;3.10;99.90;;;;;;10343890;28;20139;-63
2021/12/08 07:07:17;;;;;;;1.95;0.60;;;3.00;99.90;;;;;;10349403;28;20053;-63
2021/12/08 07:12:24;;;;;;;1.85;0.80;;;3.10;99.90;;;;;;10347442;28;20046;-60
2021/12/08 07:17:29;;;;;;;1.52;0.88;;;3.10;99.90;;;;;;10347714;28;20077;-61
2021/12/08 07:22:33;;;;;;;4.78;1.00;;;3.20;99.90;;;;;;10346132;28;20801;-62
2021/12/08 07:27:35;;;;;;;2.22;0.68;;;3.30;99.90;;;;;;10348514;28;20085;-62
2021/12/08 07:32:41;;;;;;;1.25;0.65;;;3.30;99.90;;;;;;10348882;28;20050;-62
2021/12/08 07:37:44;;;;;;;2.30;0.68;;;3.30;99.90;;;;;;10322647;28;20061;-62
2021/12/08 07:42:59;;;;;;;3.90;0.90;;;3.30;99.90;;;;;;10348027;28;20054;-62
2021/12/08 07:48:02;;;;;;;3.25;1.02;;;3.40;99.90;;;;;;10344727;28;20046;-62
2021/12/08 07:53:07;;;;;;;2.42;1.23;;;3.50;99.90;;;;;;10345701;28;20049;-62
2021/12/08 07:58:11;;;;;;;2.92;0.90;;;3.50;99.90;;;;;;10344877;28;20786;-62
2021/12/08 08:03:15;;;;;;;1.58;0.73;;;3.40;99.90;;;;;;10341575;28;20053;-62
2021/12/08 08:08:18;;;;;;;2.67;0.93;;;3.40;99.90;;;;;;10346259;28;20077;-62
2021/12/08 08:13:21;;;;;;;3.53;1.23;;;3.50;99.90;;;;;;10345977;28;20484;-62
2021/12/08 08:18:27;;;;;;;4.03;0.80;;;3.60;99.90;;;;;;10344737;28;20108;-62
2021/12/08 08:23:31;;;;;;;4.07;0.80;;;3.70;99.90;;;;;;10344350;28;20188;-62
2021/12/08 08:28:34;;;;;;;3.05;1.10;;;3.70;99.90;;;;;;10344530;28;20211;-62
2021/12/08 08:33:39;;;;;;;1.73;0.93;;;3.80;99.90;;;;;;10346111;28;20045;-62
2021/12/08 08:38:50;;;;;;;1.00;0.57;;;3.90;99.90;;;;;;10346101;28;20081;-62
2021/12/08 08:43:57;;;;;;;3.70;1.00;;;3.90;99.90;;;;;;10343046;28;20103;-62
2021/12/08 08:49:06;;;;;;;1.80;0.70;;;4.00;99.90;;;;;;10344139;28;20373;-62
2021/12/08 08:54:20;;;;;;;3.42;1.25;;;4.00;99.90;;;;;;10342092;28;20116;-62
2021/12/08 08:59:28;;;;;;;4.00;1.10;;;4.10;99.90;;;;;;10344840;28;20508;-62
2021/12/08 09:04:33;;;;;;;1.83;0.75;;;4.00;99.90;;;;;;10344060;28;20052;-62
2021/12/08 09:09:40;;;;;;;2.55;1.10;;;3.90;99.90;;;;;;10343227;28;20120;-62
2021/12/08 09:14:53;;;;;;;1.50;0.80;;;4.00;99.90;;;;;;10344203;28;20054;-62
2021/12/08 09:20:01;;;;;;;3.65;0.98;;;4.20;99.90;;;;;;10344645;28;20624;-62
2021/12/08 09:25:19;;;;;;;3.05;0.82;;;4.30;99.90;;;;;;10344517;28;20081;-62
2021/12/08 09:30:24;;;;;;;7.25;1.50;;;4.40;99.90;;;;;;10344708;28;20049;-62
2021/12/08 09:35:46;;;;;;;4.30;1.73;;;4.30;99.90;;;;;;10342761;28;20112;-62
2021/12/08 09:41:00;;;;;;;2.65;0.80;;;4.40;99.90;;;;;;10350592;28;20064;-62
2021/12/08 09:46:07;;;;;;;2.95;1.05;;;4.30;99.90;;;;;;10350440;28;20077;-62
2021/12/08 09:51:12;;;;;;;3.47;1.35;;;4.30;99.90;;;;;;10307620;28;20054;-62
2021/12/08 09:56:16;;;;;;;3.90;0.98;;;4.50;99.90;;;;;;10352953;28;20550;-62
2021/12/08 10:01:18;;;;;;;2.70;0.90;;;4.70;99.90;;;;;;10349656;28;20045;-62
2021/12/08 10:06:23;;;;;;;1.83;1.20;;;4.70;99.90;;;;;;10351560;28;20488;-62
2021/12/08 10:11:28;;;;;;;3.22;1.17;;;4.70;99.90;;;;;;10349786;28;20069;-62
2021/12/08 10:16:32;;;;;;;5.25;1.05;;;4.70;99.90;;;;;;10350958;28;20515;-62
2021/12/08 10:21:41;;;;;;;4.07;1.10;;;4.70;99.90;;;;;;10349020;28;20038;-62
2021/12/08 10:26:44;;;;;;;6.70;2.42;;;4.80;99.90;;;;;;10349730;28;20120;-62
2021/12/08 10:31:49;;;;;;;1.80;1.10;;;4.80;99.90;;;;;;10346284;28;20512;-62
2021/12/08 10:37:00;;;;;;;3.72;1.20;;;4.90;99.90;;;;;;10350780;28;20081;-62
2021/12/08 10:42:13;;;;;;;3.20;1.27;;;4.90;99.90;;;;;;10351222;28;20080;-62
2021/12/08 10:47:24;;;;;;;3.30;1.10;;;5.00;99.90;;;;;;10348415;28;20149;-62
2021/12/08 10:57:54;;;;;;;2.22;0.98;;;5.10;99.90;;;;;;10347622;28;20081;-62
2021/12/08 11:03:03;;;;;;;3.97;0.98;;;5.20;99.90;;;;;;10349283;28;20058;-62
2021/12/08 11:08:16;;;;;;;1.27;0.90;;;5.30;99.90;;;;;;10346225;28;20061;-62
2021/12/08 11:13:27;;;;;;;4.47;1.27;;;5.10;99.90;;;;;;10347471;28;20045;-62
2021/12/08 11:18:30;;;;;;;3.00;1.30;;;5.20;99.90;;;;;;10348791;28;20046;-62
2021/12/08 11:29:05;;;;;;;5.75;3.15;;;5.40;99.90;;;;;;10348506;28;20103;-62
2021/12/08 11:34:26;;;;;;;4.57;1.27;;;5.50;99.90;;;;;;10348099;28;20100;-62
2021/12/08 11:39:37;;;;;;;4.32;1.80;;;5.40;99.90;;;;;;10198693;28;20082;-62
2021/12/08 11:44:42;;;;;;;2.55;1.58;;;5.50;99.90;;;;;;10345335;28;20089;-62
2021/12/08 11:49:48;;;;;;;4.15;1.40;;;5.70;99.90;;;;;;10343340;28;20108;-62
2021/12/08 11:54:51;;;;;;;7.20;1.50;;;5.70;99.90;;;;;;10346125;28;20825;-62
2021/12/08 12:00:06;;;;;;;21.77;3.40;;;5.70;99.90;;;;;;10340529;28;20050;-63
2021/12/08 12:05:12;;;;;;;4.85;1.77;;;5.70;99.90;;;;;;10343584;28;20112;-62
2021/12/08 12:10:17;;;;;;;4.50;1.60;;;5.80;99.90;;;;;;10345093;28;20140;-62
2021/12/08 12:15:23;;;;;;;5.20;2.20;;;5.80;99.90;;;;;;10341109;28;20046;-63
2021/12/08 12:20:38;;;;;;;3.05;1.13;;;5.80;99.90;;;;;;10346185;28;20143;-63
2021/12/08 12:26:08;;;;;;;3.40;1.60;;;5.70;99.90;;;;;;10341390;28;20112;-62
2021/12/08 12:31:19;;;;;;;3.50;1.63;;;5.70;99.90;;;;;;10340948;28;20554;-61
2021/12/08 12:36:27;;;;;;;4.60;1.63;;;5.70;99.90;;;;;;10343654;28;20107;-61
2021/12/08 12:41:31;;;;;;;5.83;2.13;;;5.70;99.90;;;;;;10345197;28;21110;-62
2021/12/08 12:46:33;;;;;;;7.93;2.03;;;5.80;99.90;;;;;;10340324;28;20563;-62
2021/12/08 12:51:56;;;;;;;3.28;1.50;;;5.80;99.90;;;;;;10344812;28;20057;-62
2021/12/08 12:56:59;;;;;;;3.42;1.85;;;5.80;99.90;;;;;;10344067;28;20136;-62
2021/12/08 13:02:33;;;;;;;7.93;3.22;;;5.80;99.90;;;;;;10345229;28;20456;-63
2021/12/08 13:07:42;;;;;;;9.60;2.92;;;5.90;99.90;;;;;;10342064;28;20108;-63
2021/12/08 13:12:45;;;;;;;4.80;2.60;;;5.90;99.90;;;;;;10344020;28;20054;-63
2021/12/08 13:18:11;;;;;;;6.47;2.90;;;5.90;99.90;;;;;;10351809;28;20050;-63
2021/12/08 13:23:19;;;;;;;8.35;2.53;;;5.90;99.90;;;;;;10349278;28;20104;-63
2021/12/08 13:28:28;;;;;;;3.22;2.35;;;5.90;99.90;;;;;;10350341;28;20054;-63
2021/12/08 13:33:33;;;;;;;4.57;2.28;;;5.90;99.90;;;;;;10351967;28;20104;-63
2021/12/08 13:38:41;;;;;;;4.93;2.40;;;6.00;99.90;;;;;;10353188;28;20054;-64
2021/12/08 13:43:46;;;;;;;7.20;2.45;;;5.90;99.90;;;;;;10353138;28;20076;-64
2021/12/08 13:49:12;;;;;;;5.15;2.67;;;6.00;99.90;;;;;;10350368;28;20046;-63
2021/12/08 13:54:31;;;;;;;10.23;2.60;;;6.00;99.90;;;;;;10352421;28;20045;-64
2021/12/08 14:00:00;;;;;;;8.02;2.88;;;6.00;99.90;;;;;;10349900;28;20126;-62
2021/12/08 14:05:30;;;;;;;6.03;3.08;;;6.00;99.90;;;;;;10350532;28;20057;-62
2021/12/08 14:10:40;;;;;;;6.13;2.65;;;6.00;99.90;;;;;;10349067;28;20100;-63
2021/12/08 14:15:52;;;;;;;5.30;2.70;;;6.00;99.90;;;;;;10350769;28;20050;-62
2021/12/08 14:21:01;;;;;;;4.88;2.47;;;6.00;99.90;;;;;;10348506;28;20046;-62
2021/12/08 14:26:09;;;;;;;3.95;1.90;;;6.00;99.90;;;;;;10349390;28;20049;-62
2021/12/08 14:31:16;;;;;;;6.90;2.80;;;5.90;99.90;;;;;;10351054;28;20107;-62
2021/12/08 14:36:24;;;;;;;;;;;5.90;99.90;;;;;;10347431;28;20061;-62
2021/12/08 14:41:30;;;;;;;7.20;2.37;;;5.90;99.90;;;;;;10272933;28;19974;-62
2021/12/08 14:46:32;;;;;;;7.45;2.63;;;5.80;99.90;;;;;;10345234;28;20324;-63
2021/12/08 14:51:36;;;;;;;5.32;2.22;;;5.80;99.90;;;;;;10347280;28;20054;-62
2021/12/08 14:56:38;;;;;;;5.38;2.17;;;5.80;99.90;;;;;;10350158;28;20605;-62
2021/12/08 15:01:40;;;;;;;6.65;2.60;;;5.80;99.90;;;;;;10347960;28;20120;-62
2021/12/08 15:06:52;;;;;;;5.22;2.67;;;5.80;99.90;;;;;;10349311;28;20058;-63
2021/12/08 15:11:59;;;;;;;10.35;3.50;;;5.80;99.90;;;;;;10347654;28;20100;-63
2021/12/08 15:17:01;;;;;;;7.37;3.27;;;5.70;99.90;;;;;;10347084;28;20112;-63
2021/12/08 15:22:05;;;;;;;11.98;3.83;;;5.70;99.90;;;;;;10326358;28;20564;-63
2021/12/08 15:27:14;;;;;;;6.82;2.75;;;5.60;99.90;;;;;;10348138;28;20054;-63
2021/12/08 15:32:16;;;;;;;6.25;2.63;;;5.60;99.90;;;;;;10347209;28;20450;-63
2021/12/08 15:37:18;;;;;;;7.30;3.17;;;5.60;99.90;;;;;;10343912;28;20049;-65
2021/12/08 15:42:20;;;;;;;4.93;2.35;;;5.50;99.90;;;;;;10344350;28;20113;-65
2021/12/08 15:47:22;;;;;;;6.97;2.78;;;5.40;99.90;;;;;;10343135;28;20072;-65
2021/12/08 15:52:30;;;;;;;5.82;2.83;;;5.40;99.90;;;;;;10340818;28;20050;-65
2021/12/08 15:57:31;;;;;;;10.38;2.65;;;5.30;99.90;;;;;;10345671;28;20451;-65
2021/12/08 16:02:33;;;;;;;4.70;2.83;;;5.20;99.90;;;;;;10342546;28;20136;-66
2021/12/08 16:07:36;;;;;;;6.78;2.70;;;5.10;99.90;;;;;;10338567;28;20144;-65
2021/12/08 16:12:37;;;;;;;10.00;3.53;;;5.10;99.90;;;;;;10339561;28;20120;-66
2021/12/08 16:17:40;;;;;;;7.97;3.17;;;5.10;99.90;;;;;;10344069;28;20147;-63
2021/12/08 16:22:42;;;;;;;13.30;4.07;;;5.10;99.90;;;;;;10343280;28;20513;-63
2021/12/08 16:27:44;;;;;;;12.18;4.45;;;5.00;99.90;;;;;;10341847;28;20049;-64
2021/12/08 16:32:45;;;;;;;16.20;5.00;;;5.10;99.90;;;;;;10340718;28;20061;-63
2021/12/08 16:37:48;;;;;;;10.35;4.15;;;5.10;99.90;;;;;;10342674;28;20144;-64
2021/12/08 16:43:03;;;;;;;7.78;3.90;;;5.00;99.90;;;;;;10343313;28;20104;-64
2021/12/08 16:48:08;;;;;;;16.10;6.47;;;5.10;99.90;;;;;;10340594;28;20468;-63
2021/12/08 16:53:12;;;;;;;12.25;5.90;;;5.10;99.90;;;;;;10333231;28;20054;-63
2021/12/08 16:58:14;;;;;;;10.13;5.22;;;5.00;99.90;;;;;;10341015;28;20482;-63
2021/12/08 17:03:18;;;;;;;14.40;5.45;;;5.10;99.90;;;;;;10338531;28;20099;-64
2021/12/08 17:08:22;;;;;;;11.35;4.63;;;5.00;99.90;;;;;;10337420;28;20037;-64
2021/12/08 17:13:24;;;;;;;10.48;4.88;;;5.10;99.90;;;;;;10344735;28;20042;-62
2021/12/08 17:18:28;;;;;;;11.05;4.40;;;5.10;99.90;;;;;;10342367;28;20104;-62
2021/12/08 17:23:30;;;;;;;10.43;4.55;;;5.10;99.90;;;;;;10336656;28;20096;-62
2021/12/08 17:28:33;;;;;;;17.63;7.57;;;5.00;99.90;;;;;;10338066;28;20507;-61
2021/12/08 17:33:36;;;;;;;12.68;4.93;;;5.00;99.90;;;;;;10310455;28;20092;-62
2021/12/08 17:38:40;;;;;;;8.80;4.10;;;5.00;99.90;;;;;;10342071;28;20112;-61
2021/12/08 17:43:42;;;;;;;11.10;4.40;;;5.00;99.90;;;;;;10341553;28;20512;-62
2021/12/08 17:49:04;;;;;;;14.90;6.13;;;5.00;99.90;;;;;;10320815;28;20065;-62
2021/12/08 17:54:06;;;;;;;17.05;7.82;;;5.00;99.90;;;;;;10341504;28;20054;-62
2021/12/08 17:59:09;;;;;;;13.35;6.30;;;5.00;99.90;;;;;;10346130;28;20111;-63
2021/12/08 18:04:12;;;;;;;16.60;6.43;;;5.00;99.90;;;;;;10350266;28;20115;-63
2021/12/08 18:09:20;;;;;;;16.10;7.07;;;5.00;99.90;;;;;;10350592;28;20046;-63
2021/12/08 18:14:22;;;;;;;16.42;7.43;;;5.10;99.90;;;;;;10324966;28;20436;-64
2021/12/08 18:19:24;;;;;;;16.50;6.20;;;5.10;99.90;;;;;;10347207;28;20049;-64
2021/12/08 18:24:26;;;;;;;18.60;6.95;;;5.10;99.90;;;;;;10347487;28;20120;-64
2021/12/08 18:29:28;;;;;;;15.95;6.47;;;5.10;99.90;;;;;;10348566;28;20049;-62
2021/12/08 18:34:56;;;;;;;11.82;6.03;;;5.20;99.90;;;;;;10347062;28;20419;-62
2021/12/08 18:39:58;;;;;;;15.75;7.20;;;5.20;99.90;;;;;;10348331;28;20119;-63
2021/12/08 18:45:00;;;;;;;20.00;7.72;;;5.10;99.90;;;;;;10341812;28;20104;-62
2021/12/08 18:50:04;;;;;;;20.88;7.57;;;5.00;99.90;;;;;;10344157;28;20064;-62
2021/12/08 18:55:11;;;;;;;22.13;7.70;;;5.00;99.90;;;;;;10343027;28;20476;-62
2021/12/08 19:00:17;;;;;;;18.27;7.15;;;5.00;99.90;;;;;;10347076;28;20136;-62
2021/12/08 19:05:20;;;;;;;18.00;7.10;;;5.00;99.90;;;;;;10347006;28;20103;-62
2021/12/08 19:10:23;;;;;;;19.75;7.40;;;5.10;99.90;;;;;;10347731;28;20115;-62
2021/12/08 19:15:28;;;;;;;21.13;7.55;;;5.10;99.90;;;;;;10345824;28;20135;-62
2021/12/08 19:20:31;;;;;;;19.92;8.00;;;5.10;99.90;;;;;;10344248;28;20463;-63
2021/12/08 19:25:35;;;;;;;20.52;8.25;;;5.00;99.90;;;;;;10347572;28;20046;-63
2021/12/08 19:30:38;;;;;;;17.17;6.57;;;5.00;99.90;;;;;;10344173;28;20076;-63
2021/12/08 19:35:42;;;;;;;18.67;7.15;;;5.10;99.90;;;;;;10343639;28;20408;-63
2021/12/08 19:40:44;;;;;;;15.23;6.45;;;5.00;99.90;;;;;;10343220;28;20463;-63
2021/12/08 19:45:50;;;;;;;22.60;7.40;;;5.00;99.90;;;;;;10345259;28;20050;-62
2021/12/08 19:50:52;;;;;;;19.65;7.40;;;5.10;99.90;;;;;;10345743;28;20144;-62
2021/12/08 19:55:54;;;;;;;22.80;8.27;;;5.10;99.90;;;;;;10346240;28;20104;-63
2021/12/08 20:00:56;;;;;;;21.65;7.25;;;5.10;99.90;;;;;;10344696;28;20121;-63
2021/12/08 20:05:59;;;;;;;20.42;8.07;;;5.10;99.90;;;;;;10330385;28;20107;-63
2021/12/08 20:11:01;;;;;;;20.55;7.70;;;5.10;99.90;;;;;;10346874;28;20049;-63
2021/12/08 20:16:04;;;;;;;24.90;9.50;;;5.10;99.90;;;;;;10344181;28;20059;-63
2021/12/08 20:21:06;;;;;;;16.92;7.60;;;5.00;99.90;;;;;;10344634;28;20448;-62
2021/12/08 20:26:11;;;;;;;18.27;6.43;;;5.00;99.90;;;;;;10329177;28;20065;-63
2021/12/08 20:31:17;;;;;;;21.95;8.52;;;4.90;99.90;;;;;;10342194;28;20100;-63
2021/12/08 20:36:20;;;;;;;13.38;5.88;;;4.80;99.90;;;;;;10345547;28;20124;-63
2021/12/08 20:41:25;;;;;;;12.93;4.75;;;4.80;99.90;;;;;;10346319;28;20108;-62
2021/12/08 20:46:27;;;;;;;13.90;5.50;;;4.70;99.90;;;;;;10346691;28;20111;-62
2021/12/08 20:51:30;;;;;;;12.98;4.90;;;4.70;99.90;;;;;;10323626;28;20041;-63
2021/12/08 20:56:35;;;;;;;9.93;4.53;;;4.70;99.90;;;;;;10342784;28;20185;-63
2021/12/08 21:01:50;;;;;;;8.90;4.32;;;4.60;99.90;;;;;;10343974;28;20137;-63
2021/12/08 21:06:53;;;;;;;10.45;4.05;;;4.50;99.90;;;;;;10337968;28;20073;-62
2021/12/08 21:11:57;;;;;;;10.55;4.85;;;4.50;99.90;;;;;;10344553;28;20065;-62
2021/12/08 21:16:59;;;;;;;21.50;4.35;;;4.50;99.90;;;;;;10344830;28;20085;-62
2021/12/08 21:22:01;;;;;;;8.98;4.38;;;4.40;99.90;;;;;;10342935;28;20050;-62
2021/12/08 21:27:04;;;;;;;9.30;4.30;;;4.40;99.90;;;;;;10326768;28;20516;-62
2021/12/08 21:32:06;;;;;;;12.93;5.43;;;4.30;99.90;;;;;;10338467;28;20124;-62
2021/12/08 21:37:08;;;;;;;11.73;5.13;;;4.30;99.90;;;;;;10352759;28;20062;-62
2021/12/08 21:42:10;;;;;;;17.77;5.82;;;4.20;99.90;;;;;;10353203;28;20049;-62
2021/12/08 21:47:12;;;;;;;15.57;5.57;;;4.20;99.90;;;;;;10351548;28;20112;-62
2021/12/08 21:52:14;;;;;;;12.23;4.88;;;4.10;99.90;;;;;;10337562;28;20053;-62
2021/12/08 21:57:16;;;;;;;11.13;5.13;;;4.10;99.90;;;;;;10330083;28;20167;-62
2021/12/08 22:02:17;;;;;;;16.63;5.10;;;4.00;99.90;;;;;;10349192;28;20041;-62
2021/12/08 22:07:19;;;;;;;13.57;5.68;;;4.00;99.90;;;;;;10350842;28;20395;-62
2021/12/08 22:12:21;;;;;;;15.57;6.78;;;3.90;99.90;;;;;;10347588;28;20103;-63
2021/12/08 22:17:23;;;;;;;16.98;5.47;;;3.90;99.90;;;;;;10348493;28;20104;-62
2021/12/08 22:22:28;;;;;;;12.45;5.30;;;3.90;99.90;;;;;;10349852;28;20046;-62
2021/12/08 22:27:30;;;;;;;14.18;5.55;;;3.80;99.90;;;;;;10350262;28;20053;-62
2021/12/08 22:32:31;;;;;;;20.60;7.30;;;3.80;99.90;;;;;;10350665;28;20104;-62
2021/12/08 22:37:34;;;;;;;21.98;7.88;;;3.70;99.90;;;;;;10350488;28;20115;-62
2021/12/08 22:42:36;;;;;;;16.88;6.78;;;3.70;99.90;;;;;;10350016;28;20112;-63
2021/12/08 22:47:40;;;;;;;17.15;6.78;;;3.70;99.90;;;;;;10349239;28;20503;-62
2021/12/08 22:52:43;;;;;;;15.73;6.85;;;3.70;99.90;;;;;;10350581;28;20112;-62
2021/12/08 22:57:46;;;;;;;15.65;6.85;;;3.60;99.90;;;;;;10335000;28;20103;-62
2021/12/08 23:02:48;;;;;;;19.48;6.70;;;3.60;99.90;;;;;;10346453;28;20057;-62
2021/12/08 23:07:51;;;;;;;18.35;7.65;;;3.60;99.90;;;;;;10344942;28;20506;-62
2021/12/08 23:12:53;;;;;;;17.67;8.18;;;3.50;99.90;;;;;;10343781;28;20056;-61
2021/12/08 23:17:55;;;;;;;14.98;6.50;;;3.60;99.90;;;;;;10348382;28;20049;-61
2021/12/08 23:22:57;;;;;;;14.82;6.03;;;3.60;99.90;;;;;;10349129;28;20058;-61
2021/12/08 23:27:59;;;;;;;14.27;6.38;;;3.60;99.90;;;;;;10348120;28;20058;-61
2021/12/08 23:33:01;;;;;;;16.33;6.50;;;3.60;99.90;;;;;;10348018;28;20978;-62
2021/12/08 23:43:05;;;;;;;13.60;6.00;;;3.60;99.90;;;;;;10346840;28;20050;-61
2021/12/08 23:48:07;;;;;;;17.92;5.63;;;3.60;99.90;;;;;;10348578;28;20062;-62
2021/12/08 23:53:09;;;;;;;16.15;6.47;;;3.60;99.90;;;;;;10348278;28;20140;-62
2021/12/08 23:58:11;;;;;;;17.15;5.95;;;3.50;99.90;;;;;;10340420;28;20915;-62
